createdAt,value
2017-12-04T00:00:49.617Z,3.73
2017-12-04T00:03:17.535Z,4.63
2017-12-04T00:05:45.334Z,4.40
2017-12-04T00:08:13.037Z,5.20
2017-12-04T00:10:40.813Z,3.07
2017-12-04T00:13:08.474Z,4.60
2017-12-04T00:15:36.302Z,4.30
2017-12-04T00:18:04.056Z,5.13
2017-12-04T00:20:31.723Z,6.00
2017-12-04T00:22:59.474Z,4.13
2017-12-04T00:25:27.221Z,5.13
2017-12-04T00:27:55.078Z,4.13
2017-12-04T00:30:22.796Z,4.53
2017-12-04T00:32:50.533Z,4.57
2017-12-04T00:35:18.212Z,3.73
2017-12-04T00:37:45.958Z,4.87
2017-12-04T00:40:13.655Z,4.33
2017-12-04T00:42:41.369Z,8.73
2017-12-04T00:45:09.075Z,4.20
2017-12-04T00:47:36.818Z,5.77
2017-12-04T00:50:04.597Z,5.33
2017-12-04T00:52:32.300Z,4.80
2017-12-04T00:55:00.080Z,4.67
2017-12-04T00:57:28.013Z,4.20
2017-12-04T00:59:55.797Z,3.80
2017-12-04T01:02:23.496Z,3.50
2017-12-04T01:04:51.226Z,3.47
2017-12-04T01:07:18.935Z,4.90
2017-12-04T01:09:46.626Z,3.97
2017-12-04T01:12:14.387Z,4.40
2017-12-04T01:14:42.172Z,3.90
2017-12-04T01:17:09.875Z,3.90
2017-12-04T01:19:37.602Z,3.47
2017-12-04T01:22:05.375Z,4.70
2017-12-04T01:24:33.055Z,3.40
2017-12-04T01:27:00.804Z,4.00
2017-12-04T01:29:28.547Z,3.47
2017-12-04T01:31:56.232Z,3.20
2017-12-04T01:34:23.913Z,3.40
2017-12-04T01:36:51.723Z,2.57
2017-12-04T01:39:19.455Z,3.93
2017-12-04T01:41:47.258Z,3.67
2017-12-04T01:44:14.966Z,3.70
2017-12-04T01:46:42.738Z,3.40
2017-12-04T01:49:10.421Z,3.20
2017-12-04T01:51:38.169Z,3.70
2017-12-04T01:54:06.007Z,2.93
2017-12-04T01:56:33.672Z,3.57
2017-12-04T01:59:01.400Z,3.10
2017-12-04T02:01:29.180Z,3.87
2017-12-04T02:03:56.920Z,3.73
2017-12-04T02:06:24.723Z,3.13
2017-12-04T02:08:52.424Z,4.30
2017-12-04T02:11:20.129Z,3.23
2017-12-04T02:13:47.868Z,4.10
2017-12-04T02:16:15.591Z,2.83
2017-12-04T02:18:43.345Z,3.43
2017-12-04T02:21:11.047Z,3.60
2017-12-04T02:23:38.831Z,3.77
2017-12-04T02:26:06.620Z,3.20
2017-12-04T02:28:34.407Z,3.60
2017-12-04T02:31:02.194Z,3.30
2017-12-04T02:33:29.937Z,2.87
2017-12-04T02:35:57.691Z,3.03
2017-12-04T02:38:25.435Z,3.07
2017-12-04T02:40:53.213Z,3.37
2017-12-04T02:43:21.091Z,2.93
2017-12-04T02:45:48.847Z,2.90
2017-12-04T02:48:16.594Z,3.53
2017-12-04T02:50:44.404Z,4.10
2017-12-04T02:53:12.127Z,3.27
2017-12-04T02:55:39.901Z,3.10
2017-12-04T02:58:07.653Z,2.70
2017-12-04T03:00:35.400Z,2.70
2017-12-04T03:03:03.169Z,2.73
2017-12-04T03:05:30.877Z,4.00
2017-12-04T03:07:59.277Z,3.70
2017-12-04T03:10:27.009Z,3.50
2017-12-04T03:12:54.738Z,3.73
2017-12-04T03:15:22.487Z,3.77
2017-12-04T03:17:50.194Z,3.03
2017-12-04T03:20:18.005Z,3.33
2017-12-04T03:22:45.757Z,2.80
2017-12-04T03:25:13.507Z,2.97
2017-12-04T03:27:41.295Z,3.27
2017-12-04T03:30:09.058Z,3.97
2017-12-04T03:32:36.847Z,3.13
2017-12-04T03:35:04.623Z,2.17
2017-12-04T03:37:32.412Z,3.03
2017-12-04T03:40:00.184Z,2.90
2017-12-04T03:42:27.883Z,3.53
2017-12-04T03:44:56.242Z,4.00
2017-12-04T03:47:23.909Z,2.90
2017-12-04T03:49:51.644Z,3.13
2017-12-04T03:52:19.457Z,3.37
2017-12-04T03:54:47.337Z,3.30
2017-12-04T03:57:15.129Z,2.43
2017-12-04T03:59:42.850Z,2.87
2017-12-04T04:02:10.596Z,2.97
2017-12-04T04:04:38.314Z,3.50
2017-12-04T04:07:06.293Z,4.30
2017-12-04T04:09:33.965Z,2.80
2017-12-04T04:12:02.793Z,2.63
2017-12-04T04:14:30.479Z,3.20
2017-12-04T04:16:58.183Z,3.20
2017-12-04T04:19:25.839Z,2.43
2017-12-04T04:21:53.581Z,2.67
2017-12-04T04:24:21.417Z,3.90
2017-12-04T04:26:49.122Z,2.53
2017-12-04T04:29:16.790Z,2.77
2017-12-04T04:31:44.525Z,1.80
2017-12-04T04:34:12.284Z,2.50
2017-12-04T04:36:40.055Z,2.67
2017-12-04T04:39:07.738Z,2.20
2017-12-04T04:41:35.558Z,2.80
2017-12-04T04:44:03.263Z,2.30
2017-12-04T04:46:30.939Z,4.73
2017-12-04T04:48:58.734Z,4.13
2017-12-04T04:51:26.622Z,2.47
2017-12-04T04:53:54.468Z,2.23
2017-12-04T04:56:22.257Z,2.60
2017-12-04T04:58:50.020Z,1.90
2017-12-04T05:01:17.868Z,1.60
2017-12-04T05:03:45.640Z,1.90
2017-12-04T05:06:13.331Z,1.77
2017-12-04T05:08:41.292Z,1.30
2017-12-04T05:11:09.010Z,2.20
2017-12-04T05:13:36.907Z,1.90
2017-12-04T05:16:04.592Z,2.30
2017-12-04T05:18:32.337Z,3.10
2017-12-04T05:21:00.186Z,2.27
2017-12-04T05:23:27.903Z,1.80
2017-12-04T05:25:55.782Z,1.80
2017-12-04T05:28:23.487Z,1.77
2017-12-04T05:30:51.225Z,1.73
2017-12-04T05:33:18.914Z,1.90
2017-12-04T05:35:46.799Z,2.10
2017-12-04T05:38:14.563Z,1.83
2017-12-04T05:40:42.280Z,1.53
2017-12-04T05:43:10.214Z,1.73
2017-12-04T05:45:37.968Z,2.07
2017-12-04T05:48:05.747Z,2.03
2017-12-04T05:50:33.482Z,1.93
2017-12-04T05:53:01.216Z,2.60
2017-12-04T05:55:28.939Z,2.00
2017-12-04T05:57:56.736Z,1.63
2017-12-04T06:00:24.473Z,1.87
2017-12-04T06:02:52.145Z,1.57
2017-12-04T06:05:19.855Z,2.60
2017-12-04T06:07:48.384Z,2.57
2017-12-04T06:10:16.091Z,2.10
2017-12-04T06:12:43.797Z,3.07
2017-12-04T06:15:11.850Z,3.20
2017-12-04T06:17:39.600Z,2.57
2017-12-04T06:20:07.381Z,2.73
2017-12-04T06:22:35.337Z,2.53
2017-12-04T06:25:03.073Z,1.53
2017-12-04T06:27:30.761Z,1.07
2017-12-04T06:29:58.468Z,1.27
2017-12-04T06:32:26.128Z,1.33
2017-12-04T06:34:53.867Z,1.40
2017-12-04T06:37:21.539Z,1.10
2017-12-04T06:39:49.297Z,1.63
2017-12-04T06:42:17.088Z,1.20
2017-12-04T06:44:44.890Z,2.07
2017-12-04T06:47:12.890Z,1.27
2017-12-04T06:49:40.583Z,0.77
2017-12-04T06:52:08.447Z,1.30
2017-12-04T06:54:36.192Z,1.80
2017-12-04T06:57:03.914Z,1.13
2017-12-04T06:59:31.642Z,2.90
2017-12-04T07:01:59.325Z,1.73
2017-12-04T07:04:27.104Z,10.50
2017-12-04T07:06:54.914Z,4.73
2017-12-04T07:09:22.665Z,1.10
2017-12-04T07:11:50.425Z,1.07
2017-12-04T07:14:18.133Z,1.27
2017-12-04T07:16:45.897Z,0.77
2017-12-04T07:19:13.599Z,1.50
2017-12-04T07:21:41.274Z,0.93
2017-12-04T07:24:09.010Z,1.00
2017-12-04T07:26:36.719Z,1.30
2017-12-04T07:29:04.560Z,1.47
2017-12-04T07:31:32.268Z,1.00
2017-12-04T07:33:59.954Z,1.10
2017-12-04T07:36:27.733Z,1.07
2017-12-04T07:38:55.573Z,0.67
2017-12-04T07:41:23.323Z,2.10
2017-12-04T07:43:51.017Z,0.87
2017-12-04T07:46:18.760Z,0.90
2017-12-04T07:48:46.493Z,1.00
2017-12-04T07:51:14.241Z,1.53
2017-12-04T07:53:41.955Z,1.83
2017-12-04T07:56:09.711Z,4.83
2017-12-04T07:58:37.524Z,3.47
2017-12-04T08:01:05.459Z,2.40
2017-12-04T08:03:33.139Z,5.03
2017-12-04T08:06:00.923Z,3.40
2017-12-04T08:08:28.645Z,3.23
2017-12-04T08:10:56.399Z,2.40
2017-12-04T08:13:24.143Z,0.93
2017-12-04T08:15:51.937Z,1.17
2017-12-04T08:18:19.678Z,0.93
2017-12-04T08:20:47.476Z,0.70
2017-12-04T08:23:15.231Z,2.03
2017-12-04T08:25:43.037Z,1.53
2017-12-04T08:28:11.744Z,1.00
2017-12-04T08:30:40.460Z,0.60
2017-12-04T08:33:08.217Z,0.60
2017-12-04T08:35:35.990Z,0.80
2017-12-04T08:38:03.691Z,0.80
2017-12-04T08:40:31.714Z,1.30
2017-12-04T08:43:00.597Z,3.00
2017-12-04T08:45:28.306Z,0.80
2017-12-04T08:47:56.010Z,1.03
2017-12-04T08:50:23.770Z,1.30
2017-12-04T08:52:52.279Z,7.90
2017-12-04T08:55:20.162Z,10.47
2017-12-04T08:57:48.096Z,3.70
2017-12-04T09:00:15.842Z,7.10
2017-12-04T09:02:43.558Z,4.53
2017-12-04T09:05:11.303Z,6.57
2017-12-04T09:07:39.008Z,3.47
2017-12-04T09:10:06.760Z,3.13
2017-12-04T09:12:34.499Z,3.20
2017-12-04T09:15:02.296Z,1.33
2017-12-04T09:17:30.107Z,0.77
2017-12-04T09:19:57.931Z,1.30
2017-12-04T09:22:25.679Z,0.60
2017-12-04T09:24:53.391Z,0.93
2017-12-04T09:27:21.176Z,1.40
2017-12-04T09:29:49.135Z,1.90
2017-12-04T09:32:17.009Z,0.93
2017-12-04T09:34:44.771Z,1.63
2017-12-04T09:37:12.620Z,0.97
2017-12-04T09:39:40.431Z,1.90
2017-12-04T09:42:08.332Z,1.50
2017-12-04T09:44:36.205Z,1.70
2017-12-04T09:47:04.065Z,0.90
2017-12-04T09:49:31.849Z,1.23
2017-12-04T09:51:59.631Z,0.53
2017-12-04T09:54:27.422Z,0.83
2017-12-04T09:56:55.204Z,1.57
2017-12-04T09:59:22.980Z,1.80
2017-12-04T10:01:50.818Z,0.73
2017-12-04T10:04:18.600Z,0.50
2017-12-04T10:06:46.550Z,0.80
2017-12-04T10:09:14.356Z,0.90
2017-12-04T10:11:42.093Z,0.60
2017-12-04T10:14:09.932Z,0.77
2017-12-04T10:16:37.682Z,0.40
2017-12-04T10:19:05.395Z,0.40
2017-12-04T10:21:33.194Z,0.40
2017-12-04T10:24:00.991Z,0.37
2017-12-04T10:26:28.781Z,0.50
2017-12-04T10:28:56.572Z,0.33
2017-12-04T10:31:24.332Z,0.50
2017-12-04T10:33:52.135Z,0.87
2017-12-04T10:36:19.941Z,1.30
2017-12-04T10:38:47.688Z,0.40
2017-12-04T10:41:15.535Z,0.47
2017-12-04T10:43:43.713Z,0.40
2017-12-04T10:46:11.502Z,0.50
2017-12-04T10:48:39.218Z,0.60
2017-12-04T10:51:07.066Z,0.60
2017-12-04T10:53:34.953Z,0.70
2017-12-04T10:56:02.751Z,1.40
2017-12-04T10:58:30.535Z,0.47
2017-12-04T11:00:58.435Z,0.70
2017-12-04T11:03:26.256Z,0.67
2017-12-04T11:05:54.070Z,0.67
2017-12-04T11:08:22.000Z,0.40
2017-12-04T11:10:50.241Z,0.40
2017-12-04T11:13:18.023Z,0.60
2017-12-04T11:15:45.811Z,0.37
2017-12-04T11:18:13.617Z,0.30
2017-12-04T11:20:41.483Z,0.50
2017-12-04T11:23:09.274Z,0.47
2017-12-04T11:25:37.120Z,0.53
2017-12-04T11:28:04.858Z,0.60
2017-12-04T11:30:32.723Z,0.80
2017-12-04T11:33:01.451Z,0.70
2017-12-04T11:35:29.193Z,0.40
2017-12-04T11:37:56.954Z,1.10
2017-12-04T11:40:24.775Z,0.60
2017-12-04T11:42:52.715Z,0.33
2017-12-04T11:45:20.723Z,0.60
2017-12-04T11:47:48.485Z,0.57
2017-12-04T11:50:16.289Z,0.30
2017-12-04T11:52:44.126Z,0.30
2017-12-04T11:55:11.944Z,0.43
2017-12-04T11:57:39.728Z,0.40
2017-12-04T12:00:07.465Z,0.63
2017-12-04T12:02:35.227Z,0.63
2017-12-04T12:05:02.941Z,0.80
2017-12-04T12:07:30.773Z,1.50
2017-12-04T12:09:58.796Z,2.50
2017-12-04T12:12:26.664Z,1.40
2017-12-04T12:14:54.413Z,1.00
2017-12-04T12:17:23.296Z,0.80
2017-12-04T12:19:51.116Z,1.00
2017-12-04T12:22:18.884Z,0.40
2017-12-04T12:24:46.805Z,1.37
2017-12-04T12:27:14.516Z,2.50
2017-12-04T12:29:42.313Z,1.70
2017-12-04T12:32:10.109Z,1.33
2017-12-04T12:34:37.826Z,0.30
2017-12-04T12:37:05.648Z,0.30
2017-12-04T12:39:33.376Z,0.47
2017-12-04T12:42:01.104Z,1.37
2017-12-04T12:44:28.861Z,1.97
2017-12-04T12:46:56.754Z,1.60
2017-12-04T12:49:24.594Z,0.63
2017-12-04T12:51:52.394Z,0.70
2017-12-04T12:54:20.208Z,0.97
2017-12-04T12:56:47.999Z,2.27
2017-12-04T12:59:15.789Z,2.20
2017-12-04T13:01:43.536Z,1.70
2017-12-04T13:04:11.327Z,1.17
2017-12-04T13:06:39.060Z,0.70
2017-12-04T13:09:06.884Z,0.83
2017-12-04T13:11:34.658Z,0.50
2017-12-04T13:14:02.422Z,0.60
2017-12-04T13:16:30.181Z,0.37
2017-12-04T13:18:57.990Z,0.80
2017-12-04T13:21:25.714Z,0.80
2017-12-04T13:23:53.530Z,0.73
2017-12-04T13:26:21.323Z,0.43
2017-12-04T13:28:49.196Z,0.70
2017-12-04T13:31:17.047Z,0.50
2017-12-04T13:33:56.523Z,0.37
2017-12-04T13:36:42.094Z,0.30
2017-12-04T13:39:09.985Z,0.50
2017-12-04T13:41:37.961Z,1.40
2017-12-04T13:44:05.799Z,2.10
2017-12-04T13:46:34.830Z,2.40
2017-12-04T13:49:03.398Z,1.83
2017-12-04T13:51:31.302Z,2.37
2017-12-04T13:53:59.129Z,0.53
2017-12-04T13:56:27.099Z,0.80
2017-12-04T13:58:54.919Z,0.60
2017-12-04T14:01:22.658Z,1.00
2017-12-04T14:03:50.566Z,1.20
2017-12-04T14:06:18.394Z,0.40
2017-12-04T14:08:46.150Z,0.60
2017-12-04T14:11:13.989Z,0.40
2017-12-04T14:13:41.995Z,0.50
2017-12-04T14:16:09.782Z,0.50
2017-12-04T14:18:37.622Z,0.30
2017-12-04T14:21:05.403Z,0.50
2017-12-04T14:23:33.432Z,0.30
2017-12-04T14:26:01.656Z,0.63
2017-12-04T14:28:29.409Z,0.40
2017-12-04T14:30:57.251Z,0.33
2017-12-04T14:33:24.988Z,0.30
2017-12-04T14:35:52.813Z,0.30
2017-12-04T14:38:20.560Z,0.40
2017-12-04T14:40:48.879Z,0.50
2017-12-04T14:43:16.647Z,0.60
2017-12-04T14:45:44.430Z,1.10
2017-12-04T14:48:12.308Z,0.40
2017-12-04T14:50:40.175Z,0.30
2017-12-04T14:53:07.966Z,0.60
2017-12-04T14:55:35.819Z,0.77
2017-12-04T14:58:03.650Z,0.50
2017-12-04T15:00:31.474Z,1.43
2017-12-04T15:02:59.347Z,0.53
2017-12-04T15:05:27.165Z,0.73
2017-12-04T15:07:54.970Z,0.50
2017-12-04T15:10:22.780Z,0.43
2017-12-04T15:12:50.691Z,0.40
2017-12-04T15:15:18.609Z,0.57
2017-12-04T15:17:46.646Z,1.23
2017-12-04T15:20:14.628Z,0.50
2017-12-04T15:22:42.492Z,0.70
2017-12-04T15:25:10.427Z,1.50
2017-12-04T15:27:38.335Z,1.53
2017-12-04T15:30:06.187Z,1.20
2017-12-04T15:32:34.038Z,1.17
2017-12-04T15:35:01.800Z,1.67
2017-12-04T15:37:29.657Z,1.63
2017-12-04T15:39:57.521Z,1.07
2017-12-04T15:42:25.358Z,0.97
2017-12-04T15:44:53.388Z,1.00
2017-12-04T15:47:21.296Z,0.60
2017-12-04T15:49:49.130Z,0.80
2017-12-04T15:52:16.925Z,0.60
2017-12-04T15:54:44.795Z,0.60
2017-12-04T15:57:12.898Z,1.30
2017-12-04T15:59:40.760Z,1.67
2017-12-04T16:02:08.622Z,1.97
2017-12-04T16:04:36.437Z,2.97
2017-12-04T16:07:04.317Z,2.17
2017-12-04T16:09:32.132Z,0.90
2017-12-04T16:11:59.967Z,0.77
2017-12-04T16:14:27.700Z,0.50
2017-12-04T16:16:56.317Z,1.00
2017-12-04T16:19:24.128Z,0.90
2017-12-04T16:21:52.015Z,0.60
2017-12-04T16:24:19.863Z,1.37
2017-12-04T16:26:47.647Z,3.60
2017-12-04T16:29:15.425Z,0.90
2017-12-04T16:31:43.225Z,0.50
2017-12-04T16:34:11.041Z,1.10
2017-12-04T16:36:38.888Z,0.73
2017-12-04T16:39:06.719Z,1.20
2017-12-04T16:41:34.733Z,0.80
2017-12-04T16:44:02.678Z,1.47
2017-12-04T16:46:31.250Z,1.97
2017-12-04T16:48:59.102Z,1.80
2017-12-04T16:51:27.228Z,0.50
2017-12-04T16:53:55.106Z,0.60
2017-12-04T16:56:24.918Z,0.70
2017-12-04T16:58:54.803Z,0.43
2017-12-04T17:01:22.785Z,0.80
2017-12-04T17:03:50.760Z,0.83
2017-12-04T17:06:18.653Z,0.97
2017-12-04T17:08:46.541Z,0.77
2017-12-04T17:11:14.382Z,0.97
2017-12-04T17:13:42.182Z,0.60
2017-12-04T17:16:11.000Z,2.00
2017-12-04T17:18:39.190Z,1.00
2017-12-04T17:21:07.007Z,0.93
2017-12-04T17:23:34.812Z,1.07
2017-12-04T17:26:02.724Z,1.60
2017-12-04T17:28:30.602Z,1.30
2017-12-04T17:30:58.534Z,1.00
2017-12-04T17:33:26.303Z,1.50
2017-12-04T17:35:54.199Z,3.50
2017-12-04T17:38:22.025Z,1.47
2017-12-04T17:40:50.010Z,2.13
2017-12-04T17:43:17.905Z,3.57
2017-12-04T17:45:45.904Z,3.00
2017-12-04T17:48:14.055Z,1.93
2017-12-04T17:50:42.106Z,1.00
2017-12-04T17:53:09.977Z,0.40
2017-12-04T17:55:37.905Z,0.73
2017-12-04T17:58:05.902Z,3.90
2017-12-04T18:00:33.723Z,1.00
2017-12-04T18:03:01.552Z,2.87
2017-12-04T18:05:29.431Z,4.90
2017-12-04T18:07:57.326Z,4.10
2017-12-04T18:10:25.242Z,1.70
2017-12-04T18:12:53.081Z,2.10
2017-12-04T18:17:54.952Z,1.83
2017-12-04T18:20:23.091Z,0.90
2017-12-04T18:22:50.958Z,0.30
2017-12-04T18:25:19.024Z,0.30
2017-12-04T18:27:46.811Z,0.30
2017-12-04T18:30:14.712Z,0.53
2017-12-04T18:32:42.561Z,0.20
2017-12-04T18:35:10.446Z,0.30
2017-12-04T18:37:38.358Z,11.70
2017-12-04T18:40:06.362Z,6.07
2017-12-04T18:42:34.401Z,10.70
2017-12-04T18:45:02.904Z,9.77
2017-12-04T18:47:30.735Z,8.20
2017-12-04T18:49:58.876Z,8.67
2017-12-04T18:52:26.835Z,3.63
2017-12-04T18:54:54.676Z,5.67
2017-12-04T18:57:22.763Z,4.17
2017-12-04T18:59:50.984Z,6.57
2017-12-04T19:02:18.836Z,5.03
2017-12-04T19:04:47.686Z,1.90
2017-12-04T19:07:15.825Z,1.30
2017-12-04T19:09:43.885Z,1.50
2017-12-04T19:12:12.964Z,1.60
2017-12-04T19:14:41.339Z,3.77
2017-12-04T19:17:10.187Z,4.20
2017-12-04T19:19:38.084Z,6.40
2017-12-04T19:22:06.118Z,5.77
2017-12-04T19:24:35.916Z,7.50
2017-12-04T19:27:06.003Z,9.20
2017-12-04T19:29:35.742Z,6.50
2017-12-04T19:32:04.593Z,4.77
2017-12-04T19:34:33.983Z,4.93
2017-12-04T19:37:05.603Z,2.77
2017-12-04T19:39:36.711Z,5.23
2017-12-04T19:42:04.995Z,4.33
2017-12-04T19:44:34.910Z,3.90
2017-12-04T19:47:03.008Z,3.77
2017-12-04T19:49:31.921Z,2.80
2017-12-04T19:52:01.424Z,2.60
2017-12-04T19:54:29.447Z,3.23
2017-12-04T19:57:00.313Z,3.17
2017-12-04T19:59:29.796Z,2.90
2017-12-04T20:01:57.775Z,3.13
2017-12-04T20:04:26.227Z,2.60
2017-12-04T20:06:54.077Z,3.57
2017-12-04T20:09:22.976Z,2.93
2017-12-04T20:11:51.924Z,4.13
2017-12-04T20:14:21.049Z,2.77
2017-12-04T20:16:49.008Z,2.00
2017-12-04T20:19:17.829Z,2.90
2017-12-04T20:21:47.845Z,3.17
2017-12-04T20:24:16.522Z,3.37
2017-12-04T20:26:44.578Z,3.40
2017-12-04T20:29:13.676Z,2.80
2017-12-04T20:31:41.615Z,3.67
2017-12-04T20:34:09.843Z,3.10
2017-12-04T20:36:37.958Z,3.83
2017-12-04T20:39:06.325Z,4.10
2017-12-04T20:41:35.353Z,3.50
2017-12-04T20:44:03.176Z,2.97
2017-12-04T20:46:31.330Z,5.10
2017-12-04T20:48:59.198Z,4.53
2017-12-04T20:51:27.162Z,3.50
2017-12-04T20:53:57.214Z,3.13
2017-12-04T20:56:24.977Z,2.00
2017-12-04T20:58:53.047Z,5.00
2017-12-04T21:01:20.882Z,7.07
2017-12-04T21:03:48.670Z,2.80
2017-12-04T21:06:16.647Z,1.90
2017-12-04T21:08:56.054Z,3.00
2017-12-04T21:11:35.660Z,1.73
2017-12-04T21:14:14.996Z,1.13
2017-12-04T21:16:54.462Z,0.97
2017-12-04T21:19:22.306Z,0.60
2017-12-04T21:21:50.120Z,0.90
2017-12-04T21:24:17.987Z,0.80
2017-12-04T21:26:45.800Z,1.60
2017-12-04T21:29:13.586Z,1.53
2017-12-04T21:31:41.964Z,1.33
2017-12-04T21:34:11.100Z,0.93
2017-12-04T21:36:39.992Z,2.00
2017-12-04T21:39:07.849Z,2.10
2017-12-04T21:41:35.642Z,2.40
2017-12-04T21:44:04.723Z,2.93
2017-12-04T21:46:32.600Z,3.53
2017-12-04T21:49:00.453Z,2.90
2017-12-04T21:51:28.321Z,7.17
2017-12-04T21:53:56.134Z,5.10
2017-12-04T21:56:23.968Z,3.73
2017-12-04T21:58:51.840Z,4.20
2017-12-04T22:01:19.650Z,4.80
2017-12-04T22:03:47.538Z,4.23
2017-12-04T22:06:15.419Z,6.50
2017-12-04T22:08:44.486Z,6.60
2017-12-04T22:11:12.477Z,6.10
2017-12-04T22:13:40.343Z,5.33
2017-12-04T22:16:08.138Z,6.70
2017-12-04T22:18:36.019Z,4.97
2017-12-04T22:21:03.872Z,3.50
2017-12-04T22:23:31.694Z,2.40
2017-12-04T22:25:59.582Z,2.80
2017-12-04T22:28:27.353Z,2.03
2017-12-04T22:30:55.169Z,10.57
2017-12-04T22:33:23.949Z,6.83
2017-12-04T22:35:51.811Z,2.77
2017-12-04T22:38:19.597Z,3.87
2017-12-04T22:40:47.453Z,4.43
2017-12-04T22:43:15.225Z,3.37
2017-12-04T22:45:43.054Z,3.20
2017-12-04T22:48:10.963Z,3.30
2017-12-04T22:50:39.032Z,1.70
2017-12-04T22:53:06.888Z,1.70
2017-12-04T22:55:34.645Z,0.60
2017-12-04T22:58:02.725Z,0.50
2017-12-04T23:00:30.583Z,0.40
2017-12-04T23:02:59.322Z,0.93
2017-12-04T23:05:27.288Z,0.50
2017-12-04T23:07:55.169Z,0.70
2017-12-04T23:10:23.868Z,0.60
2017-12-04T23:12:51.728Z,0.70
2017-12-04T23:15:19.514Z,0.90
2017-12-04T23:17:47.451Z,0.67
2017-12-04T23:20:15.289Z,0.50
2017-12-04T23:22:43.225Z,0.60
2017-12-04T23:25:11.038Z,0.97
2017-12-04T23:27:38.784Z,0.50
2017-12-04T23:30:06.689Z,0.30
2017-12-04T23:32:34.552Z,0.50
2017-12-04T23:35:02.370Z,0.40
2017-12-04T23:37:30.155Z,1.23
2017-12-04T23:39:57.986Z,2.33
2017-12-04T23:42:26.148Z,1.10
2017-12-04T23:44:54.012Z,1.00
2017-12-04T23:47:21.737Z,0.83
2017-12-04T23:49:49.472Z,0.90
2017-12-04T23:52:17.293Z,1.53
2017-12-04T23:54:45.366Z,1.83
2017-12-04T23:57:13.204Z,2.70
2017-12-04T23:59:41.080Z,1.10
